Ekron, Kentucky
Current Conditions -  °F | °C
As of 6:58 PM on Tuesday 25 Nov 2014 (Local Time) from KFTK Reporting Station
Clear Clear  
Wind Chill: 32°   Ceiling: Unl
Heat Index: 36°   Visibility: 10mi
Dew Point: 28°   Wind: 5mph
Humidity: 73%   Direction: 270°W
Pressure: 30.13"   Gusts: NA
Location:  37.93°N, 86.18°W
Report Text: KFTK 252358Z AUTO 27004KT 10SM CLR 02/M02 A3013 RMK AO2 SLP213 T00221021 10076 20022 53007
Loading
Personal Weather Stations






























Interactive Weather Map New forecast layout! Learn more

10-Day Weather Forecast

Advertisements
Track Severe Weather on mobile